createdAt,value
2023-04-20T00:00:58.317Z,6.63
2023-04-20T00:03:24.902Z,7.20
2023-04-20T00:05:51.547Z,6.20
2023-04-20T00:08:17.953Z,7.25
2023-04-20T00:10:45.738Z,6.05
2023-04-20T00:13:12.515Z,6.45
2023-04-20T00:15:39.109Z,6.43
2023-04-20T00:18:05.686Z,8.40
2023-04-20T00:20:32.602Z,7.85
2023-04-20T00:22:59.045Z,20.33
2023-04-20T00:25:25.553Z,6.40
2023-04-20T00:27:52.086Z,6.30
2023-04-20T00:30:18.540Z,7.57
2023-04-20T00:32:45.068Z,7.68
2023-04-20T00:35:11.499Z,5.25
2023-04-20T00:37:37.953Z,5.68
2023-04-20T00:40:04.991Z,7.07
2023-04-20T00:42:31.396Z,6.88
2023-04-20T00:44:57.909Z,6.20
2023-04-20T00:47:24.346Z,5.40
2023-04-20T00:49:52.079Z,9.63
2023-04-20T00:52:19.285Z,7.10
2023-04-20T00:54:45.849Z,6.07
2023-04-20T00:57:14.380Z,9.48
2023-04-20T00:59:44.084Z,9.52
2023-04-20T01:02:10.739Z,6.78
2023-04-20T01:04:37.581Z,9.07
2023-04-20T01:07:04.184Z,7.68
2023-04-20T01:09:30.566Z,6.47
2023-04-20T01:11:57.064Z,6.53
2023-04-20T01:14:23.710Z,6.18
2023-04-20T01:16:52.022Z,8.02
2023-04-20T01:19:18.739Z,7.40
2023-04-20T01:21:45.433Z,6.82
2023-04-20T01:24:11.919Z,5.90
2023-04-20T01:26:38.348Z,8.48
2023-04-20T01:29:04.957Z,6.53
2023-04-20T01:31:31.716Z,6.80
2023-04-20T01:33:58.207Z,7.38
2023-04-20T01:36:24.683Z,8.10
2023-04-20T01:38:51.380Z,7.18
2023-04-20T01:41:17.963Z,9.82
2023-04-20T01:43:44.355Z,7.80
2023-04-20T01:46:10.710Z,8.68
2023-04-20T01:48:37.150Z,11.05
2023-04-20T01:51:03.877Z,8.07
2023-04-20T01:53:30.281Z,8.82
2023-04-20T01:55:56.655Z,8.40
2023-04-20T01:58:23.126Z,7.93
2023-04-20T02:00:49.612Z,6.65
2023-04-20T02:03:16.517Z,9.10
2023-04-20T02:05:43.542Z,10.55
2023-04-20T02:08:10.020Z,8.82
2023-04-20T02:10:36.817Z,10.23
2023-04-20T02:13:03.238Z,9.27
2023-04-20T02:15:29.741Z,8.68
2023-04-20T02:17:57.282Z,7.50
2023-04-20T02:20:24.154Z,8.63
2023-04-20T02:22:50.543Z,8.57
2023-04-20T02:25:17.656Z,7.30
2023-04-20T02:27:44.179Z,7.97
2023-04-20T02:30:11.033Z,7.60
2023-04-20T02:32:37.632Z,8.88
2023-04-20T02:35:04.785Z,9.88
2023-04-20T02:37:31.641Z,10.40
2023-04-20T02:39:58.295Z,11.13
2023-04-20T02:42:24.744Z,7.30
2023-04-20T02:44:52.762Z,9.00
2023-04-20T02:47:19.570Z,10.05
2023-04-20T02:49:46.032Z,9.32
2023-04-20T02:52:12.582Z,10.75
2023-04-20T02:54:39.203Z,11.82
2023-04-20T02:57:05.693Z,9.95
2023-04-20T02:59:32.075Z,13.35
2023-04-20T03:01:58.714Z,11.88
2023-04-20T03:04:26.368Z,10.85
2023-04-20T03:06:53.733Z,9.57
2023-04-20T03:09:21.269Z,11.55
2023-04-20T03:11:47.831Z,10.10
2023-04-20T03:14:14.430Z,8.65
2023-04-20T03:16:41.808Z,8.55
2023-04-20T03:19:08.419Z,10.07
2023-04-20T03:21:35.301Z,9.07
2023-04-20T03:24:01.741Z,7.88
2023-04-20T03:26:28.256Z,9.15
2023-04-20T03:28:54.763Z,8.90
2023-04-20T03:31:21.488Z,11.52
2023-04-20T03:33:48.107Z,10.45
2023-04-20T03:36:14.546Z,9.73
2023-04-20T03:38:41.085Z,10.18
2023-04-20T03:41:08.133Z,13.80
2023-04-20T03:43:35.134Z,10.73
2023-04-20T03:46:01.776Z,12.18
2023-04-20T03:48:28.347Z,8.55
2023-04-20T03:50:54.832Z,11.55
2023-04-20T03:53:21.795Z,12.45
2023-04-20T03:55:48.459Z,10.52
2023-04-20T03:58:15.575Z,10.95
2023-04-20T04:00:42.025Z,12.90
2023-04-20T04:03:08.775Z,11.02
2023-04-20T04:05:35.406Z,9.68
2023-04-20T04:08:01.820Z,11.93
2023-04-20T04:10:28.353Z,10.18
2023-04-20T04:12:54.756Z,8.88
2023-04-20T04:15:21.171Z,11.93
2023-04-20T04:17:48.427Z,12.82
2023-04-20T04:20:15.035Z,9.65
2023-04-20T04:22:42.093Z,12.82
2023-04-20T04:25:09.011Z,9.85
2023-04-20T04:27:35.461Z,10.77
2023-04-20T04:30:03.487Z,10.68
2023-04-20T04:32:30.375Z,10.15
2023-04-20T04:34:57.714Z,11.05
2023-04-20T04:37:24.082Z,11.57
2023-04-20T04:39:51.088Z,8.68
2023-04-20T04:42:17.599Z,9.48
2023-04-20T04:44:44.889Z,13.20
2023-04-20T04:47:14.233Z,10.55
2023-04-20T04:49:40.801Z,11.00
2023-04-20T04:52:08.527Z,9.90
2023-04-20T04:54:34.912Z,12.55
2023-04-20T04:57:01.598Z,9.40
2023-04-20T04:59:28.037Z,13.13
2023-04-20T05:01:54.565Z,10.20
2023-04-20T05:04:21.243Z,10.48
2023-04-20T05:06:47.739Z,13.45
2023-04-20T05:09:14.142Z,9.27
2023-04-20T05:11:40.608Z,12.15
2023-04-20T05:14:06.981Z,11.82
2023-04-20T05:16:33.520Z,11.52
2023-04-20T05:18:59.898Z,12.93
2023-04-20T05:21:26.309Z,12.48
2023-04-20T05:23:52.725Z,13.48
2023-04-20T05:26:19.213Z,12.35
2023-04-20T05:28:45.742Z,10.18
2023-04-20T05:31:12.089Z,12.60
2023-04-20T05:33:39.434Z,11.38
2023-04-20T05:36:10.094Z,11.30
2023-04-20T05:38:36.577Z,10.13
2023-04-20T05:41:03.072Z,12.20
2023-04-20T05:43:29.573Z,11.50
2023-04-20T05:45:56.012Z,12.60
2023-04-20T05:48:22.936Z,12.57
2023-04-20T05:50:49.706Z,13.57
2023-04-20T05:53:16.167Z,11.40
2023-04-20T05:55:42.526Z,10.38
2023-04-20T05:58:08.946Z,12.23
2023-04-20T06:00:35.612Z,11.35
2023-04-20T06:03:02.129Z,11.43
2023-04-20T06:05:28.759Z,12.02
2023-04-20T06:07:55.281Z,12.18
2023-04-20T06:10:21.826Z,13.57
2023-04-20T06:12:48.270Z,11.23
2023-04-20T06:15:14.720Z,10.50
2023-04-20T06:17:41.351Z,10.75
2023-04-20T06:20:11.649Z,11.15
2023-04-20T06:22:46.114Z,9.82
2023-04-20T06:25:13.546Z,11.07
2023-04-20T06:27:39.946Z,14.90
2023-04-20T06:30:07.002Z,12.93
2023-04-20T06:32:33.679Z,11.77
2023-04-20T06:35:00.188Z,11.13
2023-04-20T06:37:26.585Z,10.02
2023-04-20T06:39:54.818Z,13.40
2023-04-20T06:42:22.018Z,11.80
2023-04-20T06:44:48.470Z,8.77
2023-04-20T06:47:14.890Z,10.02
2023-04-20T06:49:41.287Z,10.90
2023-04-20T06:52:07.685Z,11.88
2023-04-20T06:54:34.210Z,10.82
2023-04-20T06:57:01.354Z,10.50
2023-04-20T06:59:27.743Z,13.18
2023-04-20T07:01:54.142Z,10.32
2023-04-20T07:04:20.631Z,11.38
2023-04-20T07:06:50.045Z,11.85
2023-04-20T07:09:19.391Z,12.23
2023-04-20T07:11:46.136Z,10.88
2023-04-20T07:14:12.496Z,10.25
2023-04-20T07:16:38.880Z,15.45
2023-04-20T07:19:05.581Z,14.75
2023-04-20T07:21:32.217Z,11.18
2023-04-20T07:23:59.063Z,9.90
2023-04-20T07:26:25.763Z,10.27
2023-04-20T07:28:52.409Z,9.38
2023-04-20T07:31:18.884Z,9.88
2023-04-20T07:33:45.293Z,10.00
2023-04-20T07:36:11.716Z,10.75
2023-04-20T07:38:38.104Z,10.40
2023-04-20T07:41:04.556Z,9.50
2023-04-20T07:43:30.971Z,8.57
2023-04-20T07:45:57.727Z,15.60
2023-04-20T07:48:24.129Z,10.38
2023-04-20T07:50:50.565Z,9.63
2023-04-20T07:53:16.958Z,9.55
2023-04-20T07:55:43.514Z,9.43
2023-04-20T07:58:09.948Z,10.95
2023-04-20T08:00:36.468Z,11.90
2023-04-20T08:03:03.430Z,12.27
2023-04-20T08:05:30.047Z,11.13
2023-04-20T08:07:56.599Z,10.15
2023-04-20T08:10:23.062Z,10.95
2023-04-20T08:12:52.489Z,10.27
2023-04-20T08:15:19.227Z,14.23
2023-04-20T08:17:45.896Z,11.38
2023-04-20T08:20:12.725Z,11.95
2023-04-20T08:22:39.596Z,11.82
2023-04-20T08:25:06.174Z,10.80
2023-04-20T08:27:32.643Z,14.57
2023-04-20T08:29:59.344Z,10.98
2023-04-20T08:32:26.829Z,12.15
2023-04-20T08:34:54.065Z,11.75
2023-04-20T08:37:20.863Z,10.95
2023-04-20T08:39:47.203Z,12.32
2023-04-20T08:42:13.949Z,11.73
2023-04-20T08:44:40.738Z,12.73
2023-04-20T08:47:09.884Z,11.75
2023-04-20T08:49:36.533Z,12.65
2023-04-20T08:52:03.086Z,13.68
2023-04-20T08:54:29.433Z,12.57
2023-04-20T08:56:56.760Z,12.70
2023-04-20T08:59:23.183Z,11.63
2023-04-20T09:01:49.690Z,10.85
2023-04-20T09:04:24.651Z,10.82
2023-04-20T09:06:53.542Z,13.77
2023-04-20T09:09:22.832Z,11.77
2023-04-20T09:12:06.920Z,12.45
2023-04-20T09:14:44.012Z,12.48
2023-04-20T09:17:14.167Z,12.70
2023-04-20T09:19:43.580Z,11.02
2023-04-20T09:22:10.122Z,10.40
2023-04-20T09:24:39.333Z,9.95
2023-04-20T09:27:16.566Z,10.38
2023-04-20T09:29:43.120Z,12.00
2023-04-20T09:32:23.035Z,9.57
2023-04-20T09:34:49.722Z,11.73
2023-04-20T09:37:16.804Z,9.73
2023-04-20T09:39:44.693Z,10.55
2023-04-20T09:42:15.602Z,13.23
2023-04-20T09:44:43.265Z,9.60
2023-04-20T09:47:18.415Z,9.05
2023-04-20T09:49:47.824Z,9.05
2023-04-20T09:52:18.774Z,9.80
2023-04-20T09:54:46.130Z,8.65
2023-04-20T09:57:13.910Z,10.98
2023-04-20T09:59:44.190Z,9.82
2023-04-20T10:02:12.383Z,10.43
2023-04-20T10:04:54.284Z,9.82
2023-04-20T10:07:31.873Z,8.23
2023-04-20T10:10:09.144Z,8.63
2023-04-20T10:12:49.877Z,10.85
2023-04-20T10:15:17.286Z,8.70
2023-04-20T10:17:44.470Z,9.18
2023-04-20T10:20:24.842Z,9.25
2023-04-20T10:23:06.437Z,9.70
2023-04-20T10:25:32.884Z,10.70
2023-04-20T10:28:04.514Z,8.43
2023-04-20T10:30:32.491Z,7.88
2023-04-20T10:33:02.976Z,9.07
2023-04-20T10:35:29.889Z,8.30
2023-04-20T10:37:56.256Z,10.15
2023-04-20T10:40:29.578Z,7.18
2023-04-20T10:42:55.942Z,7.45
2023-04-20T10:45:35.161Z,7.50
2023-04-20T10:48:10.426Z,6.80
2023-04-20T10:50:37.169Z,7.22
2023-04-20T10:53:04.626Z,7.25
2023-04-20T10:55:31.394Z,7.20
2023-04-20T10:57:57.773Z,8.60
2023-04-20T11:00:27.122Z,4.93
2023-04-20T11:02:56.770Z,7.03
2023-04-20T11:05:27.238Z,5.95
2023-04-20T11:07:54.720Z,7.15
2023-04-20T11:10:23.510Z,7.18
2023-04-20T11:12:50.978Z,7.43
2023-04-20T11:15:17.621Z,8.30
2023-04-20T11:17:44.468Z,9.10
2023-04-20T11:20:13.672Z,5.80
2023-04-20T11:22:41.895Z,7.10
2023-04-20T11:25:10.741Z,7.65
2023-04-20T11:27:38.700Z,8.23
2023-04-20T11:30:07.763Z,6.00
2023-04-20T11:32:35.697Z,7.15
2023-04-20T11:35:08.427Z,7.60
2023-04-20T11:37:51.487Z,6.85
2023-04-20T11:40:18.297Z,9.63
2023-04-20T11:42:44.708Z,7.03
2023-04-20T11:45:11.608Z,8.20
2023-04-20T11:47:40.982Z,7.03
2023-04-20T11:50:08.660Z,6.43
2023-04-20T11:52:35.224Z,6.75
2023-04-20T11:55:02.373Z,6.20
2023-04-20T11:57:29.053Z,6.65
2023-04-20T11:59:55.442Z,5.95
2023-04-20T12:02:22.800Z,5.25
2023-04-20T12:04:50.421Z,7.03
2023-04-20T12:07:16.933Z,6.40
2023-04-20T12:09:44.364Z,7.32
2023-04-20T12:12:10.946Z,7.40
2023-04-20T12:14:37.335Z,7.38
2023-04-20T12:17:04.626Z,7.03
2023-04-20T12:19:32.042Z,8.07
2023-04-20T12:21:58.519Z,5.70
2023-04-20T12:24:25.033Z,6.05
2023-04-20T12:26:51.467Z,6.55
2023-04-20T12:29:18.084Z,5.75
2023-04-20T12:31:45.118Z,6.90
2023-04-20T12:34:11.793Z,5.93
2023-04-20T12:36:38.582Z,6.18
2023-04-20T12:39:05.139Z,6.82
2023-04-20T12:41:31.544Z,5.88
2023-04-20T12:43:57.953Z,6.30
2023-04-20T12:46:25.351Z,9.25
2023-04-20T12:48:52.121Z,7.35
2023-04-20T12:51:18.635Z,5.88
2023-04-20T12:53:45.270Z,8.52
2023-04-20T12:56:11.626Z,7.20
2023-04-20T12:58:38.104Z,5.78
2023-04-20T13:01:04.612Z,6.25
2023-04-20T13:03:31.270Z,6.32
2023-04-20T13:05:59.837Z,5.90
2023-04-20T13:08:26.244Z,6.20
2023-04-20T13:10:52.695Z,5.75
2023-04-20T13:13:19.776Z,6.43
2023-04-20T13:15:46.161Z,7.72
2023-04-20T13:18:14.887Z,5.05
2023-04-20T13:20:41.404Z,6.22
2023-04-20T13:23:07.779Z,5.93
2023-04-20T13:25:34.644Z,6.50
2023-04-20T13:28:02.755Z,5.70
2023-04-20T13:30:29.363Z,7.22
2023-04-20T13:32:56.017Z,6.20
2023-04-20T13:35:22.997Z,7.30
2023-04-20T13:37:49.598Z,6.03
2023-04-20T13:40:16.096Z,7.38
2023-04-20T13:42:42.631Z,6.32
2023-04-20T13:45:10.233Z,5.90
2023-04-20T13:47:38.829Z,6.15
2023-04-20T13:50:07.030Z,7.63
2023-04-20T13:52:33.530Z,6.63
2023-04-20T13:55:00.284Z,6.88
2023-04-20T13:57:26.888Z,6.95
2023-04-20T13:59:53.485Z,7.30
2023-04-20T14:02:19.955Z,8.30
2023-04-20T14:04:46.550Z,7.82
2023-04-20T14:07:13.106Z,9.02
2023-04-20T14:09:39.538Z,6.68
2023-04-20T14:12:06.082Z,7.85
2023-04-20T14:14:32.624Z,8.52
2023-04-20T14:16:59.120Z,7.88
2023-04-20T14:19:25.597Z,8.68
2023-04-20T14:21:52.019Z,6.80
2023-04-20T14:24:18.696Z,9.13
2023-04-20T14:26:45.305Z,8.27
2023-04-20T14:29:13.361Z,6.85
2023-04-20T14:31:39.849Z,6.80
2023-04-20T14:34:06.396Z,9.05
2023-04-20T14:36:33.296Z,7.15
2023-04-20T14:38:59.681Z,8.90
2023-04-20T14:41:26.488Z,8.27
2023-04-20T14:43:53.010Z,8.50
2023-04-20T14:46:19.688Z,8.18
2023-04-20T14:48:46.194Z,8.23
2023-04-20T14:51:13.427Z,8.80
2023-04-20T14:53:39.820Z,8.45
2023-04-20T14:56:06.304Z,8.65
2023-04-20T14:58:33.128Z,9.85
2023-04-20T15:00:59.570Z,9.40
2023-04-20T15:03:26.313Z,11.73
2023-04-20T15:05:53.339Z,10.88
2023-04-20T15:08:19.905Z,9.05
2023-04-20T15:10:46.426Z,9.50
2023-04-20T15:13:13.378Z,11.48
2023-04-20T15:15:48.279Z,11.18
2023-04-20T15:18:17.325Z,10.80
2023-04-20T15:20:44.391Z,11.93
2023-04-20T15:23:11.320Z,10.35
2023-04-20T15:25:38.893Z,11.75
2023-04-20T15:28:05.490Z,10.10
2023-04-20T15:30:31.974Z,12.40
2023-04-20T15:33:05.630Z,11.43
2023-04-20T15:35:33.552Z,12.05
2023-04-20T15:38:00.111Z,12.55
2023-04-20T15:40:27.326Z,11.60
2023-04-20T15:42:57.257Z,14.00
2023-04-20T15:45:23.954Z,13.00
2023-04-20T15:47:51.325Z,11.68
2023-04-20T15:50:17.816Z,14.15
2023-04-20T15:52:45.581Z,12.60
2023-04-20T15:55:12.067Z,14.70
2023-04-20T15:57:38.702Z,11.05
2023-04-20T16:00:05.931Z,13.43
2023-04-20T16:02:32.634Z,12.45
2023-04-20T16:04:59.364Z,11.60
2023-04-20T16:07:26.056Z,10.68
2023-04-20T16:09:52.495Z,11.82
2023-04-20T16:12:19.025Z,11.45
2023-04-20T16:14:45.693Z,11.48
2023-04-20T16:17:12.045Z,11.98
2023-04-20T16:19:38.493Z,11.57
2023-04-20T16:22:04.929Z,11.40
2023-04-20T16:24:31.346Z,10.57
2023-04-20T16:27:00.671Z,11.75
2023-04-20T16:29:27.469Z,10.63
2023-04-20T16:31:54.049Z,12.52
2023-04-20T16:34:20.683Z,12.80
2023-04-20T16:36:47.881Z,14.05
2023-04-20T16:39:14.481Z,13.75
2023-04-20T16:41:41.000Z,12.88
2023-04-20T16:44:07.413Z,12.52
2023-04-20T16:46:33.930Z,11.32
2023-04-20T16:49:00.464Z,11.45
2023-04-20T16:51:27.191Z,10.30
2023-04-20T16:53:53.658Z,12.85
2023-04-20T16:56:20.160Z,9.65
2023-04-20T16:58:47.024Z,12.77
2023-04-20T17:01:14.514Z,10.68
2023-04-20T17:03:41.565Z,13.10
2023-04-20T17:06:09.837Z,13.25
2023-04-20T17:08:39.228Z,15.02
2023-04-20T17:11:06.462Z,12.43
2023-04-20T17:13:34.161Z,14.27
2023-04-20T17:16:00.917Z,10.23
2023-04-20T17:18:27.550Z,13.88
2023-04-20T17:20:57.130Z,13.70
2023-04-20T17:23:23.588Z,12.82
2023-04-20T17:25:51.222Z,12.07
2023-04-20T17:28:17.791Z,11.60
2023-04-20T17:30:44.319Z,13.50
2023-04-20T17:33:14.084Z,10.15
2023-04-20T17:35:40.739Z,12.15
2023-04-20T17:38:07.230Z,10.27
2023-04-20T17:40:34.043Z,13.10
2023-04-20T17:43:00.564Z,12.68
2023-04-20T17:45:27.267Z,11.98
2023-04-20T17:47:53.850Z,13.05
2023-04-20T17:50:20.742Z,10.98
2023-04-20T17:52:47.269Z,11.40
2023-04-20T17:55:13.942Z,12.27
2023-04-20T17:57:40.600Z,13.07
2023-04-20T18:00:08.701Z,11.63
2023-04-20T18:02:35.759Z,12.40
2023-04-20T18:05:02.333Z,13.43
2023-04-20T18:07:28.861Z,12.23
2023-04-20T18:09:55.611Z,12.82
2023-04-20T18:12:22.211Z,12.93
2023-04-20T18:14:48.702Z,11.55
2023-04-20T18:17:15.144Z,10.75
2023-04-20T18:19:41.576Z,11.70
2023-04-20T18:22:08.942Z,12.32
2023-04-20T18:24:35.475Z,13.50
2023-04-20T18:27:01.899Z,13.10
2023-04-20T18:29:28.977Z,13.93
2023-04-20T18:31:59.155Z,13.88
2023-04-20T18:34:29.852Z,13.02
2023-04-20T18:36:56.953Z,17.85
2023-04-20T18:39:24.461Z,17.20
2023-04-20T18:41:51.052Z,15.52
2023-04-20T18:44:17.600Z,15.13
2023-04-20T18:46:44.331Z,14.13
2023-04-20T18:49:11.534Z,13.77
2023-04-20T18:51:38.089Z,17.08
2023-04-20T18:54:04.727Z,13.60
2023-04-20T18:56:31.300Z,16.23
2023-04-20T18:58:57.944Z,14.80
2023-04-20T19:01:24.648Z,15.98
2023-04-20T19:03:51.195Z,15.77
2023-04-20T19:06:17.699Z,15.65
2023-04-20T19:08:44.069Z,15.98
2023-04-20T19:11:10.511Z,18.23
2023-04-20T19:13:37.013Z,14.45
2023-04-20T19:16:04.593Z,16.58
2023-04-20T19:18:31.131Z,17.58
2023-04-20T19:20:57.621Z,18.20
2023-04-20T19:23:24.067Z,15.07
2023-04-20T19:25:50.548Z,21.30
2023-04-20T19:28:17.121Z,17.33
2023-04-20T19:30:43.565Z,19.48
2023-04-20T19:33:10.253Z,17.65
2023-04-20T19:35:36.761Z,19.75
2023-04-20T19:38:03.290Z,18.20
2023-04-20T19:40:29.764Z,16.45
2023-04-20T19:42:56.684Z,19.45
2023-04-20T19:45:23.642Z,18.33
2023-04-20T19:47:52.218Z,16.10
2023-04-20T19:50:21.404Z,18.45
2023-04-20T19:52:52.624Z,19.17
2023-04-20T19:55:25.781Z,15.25
2023-04-20T19:57:52.336Z,17.23
2023-04-20T20:00:23.956Z,17.63
2023-04-20T20:02:53.707Z,18.75
2023-04-20T20:05:20.734Z,16.40
2023-04-20T20:07:55.630Z,21.05
2023-04-20T20:10:22.290Z,14.57
2023-04-20T20:12:48.669Z,19.20
2023-04-20T20:15:15.394Z,15.52
2023-04-20T20:17:45.257Z,16.23
2023-04-20T20:20:12.367Z,16.83
2023-04-20T20:22:39.077Z,17.25
2023-04-20T20:25:07.063Z,18.33
2023-04-20T20:27:36.288Z,17.30
2023-04-20T20:30:02.891Z,16.77
2023-04-20T20:32:33.268Z,19.00
2023-04-20T20:35:01.147Z,18.25
2023-04-20T20:37:28.232Z,16.20
2023-04-20T20:39:54.669Z,18.75
2023-04-20T20:42:21.367Z,17.48
2023-04-20T20:44:48.008Z,18.23
2023-04-20T20:47:14.356Z,17.30
2023-04-20T20:49:40.796Z,18.45
2023-04-20T20:52:07.264Z,18.63
2023-04-20T20:54:33.650Z,16.35
2023-04-20T20:57:00.177Z,15.93
2023-04-20T20:59:26.837Z,17.85
2023-04-20T21:01:53.599Z,16.73
2023-04-20T21:04:20.055Z,17.55
2023-04-20T21:06:46.555Z,15.35
2023-04-20T21:09:14.674Z,16.08
2023-04-20T21:11:41.078Z,15.43
2023-04-20T21:14:07.468Z,15.77
2023-04-20T21:16:33.880Z,14.73
2023-04-20T21:19:00.287Z,14.70
2023-04-20T21:21:27.426Z,16.92
2023-04-20T21:23:54.098Z,16.02
2023-04-20T21:26:20.595Z,16.15
2023-04-20T21:28:47.012Z,16.50
2023-04-20T21:31:13.515Z,14.60
2023-04-20T21:33:40.036Z,13.68
2023-04-20T21:36:07.167Z,16.63
2023-04-20T21:38:33.895Z,14.80
2023-04-20T21:41:00.345Z,17.90
2023-04-20T21:43:27.034Z,14.32
2023-04-20T21:45:53.561Z,13.85
2023-04-20T21:48:19.937Z,13.55
2023-04-20T21:50:46.349Z,16.95
2023-04-20T21:53:12.813Z,14.70
2023-04-20T21:55:39.266Z,14.70
2023-04-20T21:58:05.700Z,13.82
2023-04-20T22:00:32.106Z,16.80
2023-04-20T22:02:59.160Z,15.02
2023-04-20T22:05:26.130Z,14.50
2023-04-20T22:07:53.124Z,16.23
2023-04-20T22:10:20.224Z,18.65
2023-04-20T22:12:47.692Z,16.08
2023-04-20T22:15:14.954Z,16.05
2023-04-20T22:17:41.980Z,15.43
2023-04-20T22:20:10.495Z,15.68
2023-04-20T22:22:38.174Z,15.02
2023-04-20T22:25:05.791Z,16.42
2023-04-20T22:27:33.416Z,14.60
2023-04-20T22:29:59.934Z,15.50
2023-04-20T22:32:26.898Z,17.27
2023-04-20T22:34:53.315Z,18.23
2023-04-20T22:37:19.778Z,17.25
2023-04-20T22:39:46.209Z,16.23
2023-04-20T22:42:12.592Z,17.85
2023-04-20T22:44:38.978Z,14.68
2023-04-20T22:47:05.625Z,15.57
2023-04-20T22:49:32.146Z,14.93
2023-04-20T22:51:58.607Z,14.30
2023-04-20T22:54:25.423Z,15.82
2023-04-20T22:56:52.019Z,17.15
2023-04-20T22:59:18.657Z,16.67
2023-04-20T23:01:45.418Z,17.10
2023-04-20T23:04:12.024Z,20.23
2023-04-20T23:06:38.607Z,16.20
2023-04-20T23:09:08.346Z,15.45
2023-04-20T23:11:38.638Z,16.83
2023-04-20T23:14:07.768Z,18.45
2023-04-20T23:16:35.120Z,16.65
2023-04-20T23:19:01.856Z,17.10
2023-04-20T23:21:28.780Z,18.58
2023-04-20T23:23:57.648Z,15.93
2023-04-20T23:26:24.775Z,15.35
2023-04-20T23:28:52.117Z,15.45
2023-04-20T23:31:19.822Z,15.93
2023-04-20T23:33:47.427Z,15.95
2023-04-20T23:36:14.021Z,15.23
2023-04-20T23:38:40.838Z,17.05
2023-04-20T23:41:11.310Z,16.13
2023-04-20T23:43:38.623Z,17.63
2023-04-20T23:46:06.629Z,19.23
2023-04-20T23:48:33.945Z,18.40
2023-04-20T23:51:01.207Z,16.05
2023-04-20T23:53:27.784Z,16.30
2023-04-20T23:55:57.413Z,16.40
2023-04-20T23:58:24.676Z,15.65
